createdAt,value
2018-11-06T00:01:35.638Z,8.80
2018-11-06T00:04:05.023Z,8.80
2018-11-06T00:06:33.524Z,8.80
2018-11-06T00:09:01.877Z,8.70
2018-11-06T00:11:30.214Z,8.70
2018-11-06T00:13:58.555Z,8.70
2018-11-06T00:16:26.890Z,8.70
2018-11-06T00:18:55.218Z,8.70
2018-11-06T00:21:23.557Z,8.70
2018-11-06T00:23:51.914Z,8.70
2018-11-06T00:26:20.254Z,8.70
2018-11-06T00:28:48.573Z,8.60
2018-11-06T00:31:16.926Z,8.60
2018-11-06T00:33:45.254Z,8.60
2018-11-06T00:36:13.612Z,8.60
2018-11-06T00:38:41.947Z,8.60
2018-11-06T00:41:10.290Z,8.60
2018-11-06T00:43:38.626Z,8.60
2018-11-06T00:46:06.979Z,8.60
2018-11-06T00:48:35.299Z,8.50
2018-11-06T00:51:03.654Z,8.50
2018-11-06T00:53:31.979Z,8.50
2018-11-06T00:56:00.330Z,8.50
2018-11-06T00:58:28.649Z,8.50
2018-11-06T01:00:57.007Z,8.40
2018-11-06T01:03:30.680Z,8.40
2018-11-06T01:05:59.030Z,8.40
2018-11-06T01:08:27.362Z,8.40
2018-11-06T01:10:55.701Z,8.30
2018-11-06T01:13:24.032Z,8.30
2018-11-06T01:15:52.379Z,8.30
2018-11-06T01:18:20.706Z,8.30
2018-11-06T01:20:49.066Z,8.30
2018-11-06T01:23:17.394Z,8.30
2018-11-06T01:25:45.729Z,8.30
2018-11-06T01:28:14.053Z,8.30
2018-11-06T01:30:42.402Z,8.20
2018-11-06T01:33:10.735Z,8.20
2018-11-06T01:35:39.102Z,8.20
2018-11-06T01:38:07.442Z,8.20
2018-11-06T01:40:35.783Z,8.20
2018-11-06T01:43:04.248Z,8.20
2018-11-06T01:45:32.594Z,8.20
2018-11-06T01:48:00.914Z,8.20
2018-11-06T01:50:29.263Z,8.10
2018-11-06T01:52:57.585Z,8.10
2018-11-06T01:55:25.936Z,8.10
2018-11-06T01:57:54.276Z,8.10
2018-11-06T02:00:22.618Z,8.10
2018-11-06T02:02:50.941Z,8.10
2018-11-06T02:05:19.486Z,8.00
2018-11-06T02:07:48.991Z,8.00
2018-11-06T02:10:18.106Z,8.00
2018-11-06T02:12:47.062Z,7.90
2018-11-06T02:15:15.411Z,7.90
2018-11-06T02:17:44.538Z,7.90
2018-11-06T02:20:13.571Z,7.90
2018-11-06T02:22:42.942Z,7.90
2018-11-06T02:25:11.734Z,7.90
2018-11-06T02:27:40.106Z,7.80
2018-11-06T02:30:10.637Z,7.80
2018-11-06T02:32:38.992Z,7.80
2018-11-06T02:35:07.379Z,7.80
2018-11-06T02:37:35.821Z,7.80
2018-11-06T02:40:04.166Z,7.80
2018-11-06T02:42:32.527Z,7.80
2018-11-06T02:45:00.877Z,7.80
2018-11-06T02:47:29.223Z,7.70
2018-11-06T02:49:57.542Z,7.70
2018-11-06T02:52:25.895Z,7.70
2018-11-06T02:54:54.218Z,7.70
2018-11-06T02:57:22.564Z,7.70
2018-11-06T02:59:50.895Z,7.60
2018-11-06T03:02:19.265Z,7.60
2018-11-06T03:04:47.590Z,7.60
2018-11-06T03:07:15.957Z,7.60
2018-11-06T03:09:44.283Z,7.50
2018-11-06T03:12:12.639Z,7.50
2018-11-06T03:14:40.962Z,7.50
2018-11-06T03:17:09.294Z,7.50
2018-11-06T03:19:37.615Z,7.50
2018-11-06T03:22:05.967Z,7.40
2018-11-06T03:24:34.298Z,7.40
2018-11-06T03:27:02.706Z,7.40
2018-11-06T03:29:31.006Z,7.30
2018-11-06T03:31:59.366Z,7.30
2018-11-06T03:34:27.698Z,7.30
2018-11-06T03:36:56.050Z,7.20
2018-11-06T03:39:24.406Z,7.20
2018-11-06T03:41:52.738Z,7.20
2018-11-06T03:44:21.086Z,7.10
2018-11-06T03:46:49.434Z,7.10
2018-11-06T03:49:17.756Z,7.10
2018-11-06T03:51:46.094Z,7.10
2018-11-06T03:54:14.432Z,7.10
2018-11-06T03:56:42.805Z,7.10
2018-11-06T03:59:11.127Z,7.10
2018-11-06T04:01:39.574Z,7.10
2018-11-06T04:04:07.898Z,7.10
2018-11-06T04:06:36.246Z,7.10
2018-11-06T04:09:08.335Z,7.10
2018-11-06T04:11:36.671Z,7.10
2018-11-06T04:14:05.171Z,7.10
2018-11-06T04:16:33.503Z,7.10
2018-11-06T04:19:01.895Z,7.10
2018-11-06T04:21:38.456Z,7.10
2018-11-06T04:24:08.661Z,7.00
2018-11-06T04:26:37.811Z,7.10
2018-11-06T04:29:06.749Z,7.10
2018-11-06T04:31:35.974Z,7.10
2018-11-06T04:34:04.299Z,7.10
2018-11-06T04:36:32.658Z,7.10
2018-11-06T04:39:00.994Z,7.10
2018-11-06T04:41:29.345Z,7.10
2018-11-06T04:43:57.690Z,7.10
2018-11-06T04:46:26.047Z,7.10
2018-11-06T04:48:54.383Z,7.10
2018-11-06T04:51:22.738Z,7.10
2018-11-06T04:53:54.655Z,7.10
2018-11-06T04:56:23.028Z,7.10
2018-11-06T04:58:51.354Z,7.10
2018-11-06T05:01:19.690Z,7.10
2018-11-06T05:03:48.258Z,7.10
2018-11-06T05:06:17.751Z,7.10
2018-11-06T05:08:46.359Z,7.20
2018-11-06T05:11:15.026Z,7.20
2018-11-06T05:13:43.485Z,7.20
2018-11-06T05:16:11.812Z,7.20
2018-11-06T05:18:40.398Z,7.20
2018-11-06T05:21:08.730Z,7.20
2018-11-06T05:23:37.075Z,7.20
2018-11-06T05:26:05.506Z,7.20
2018-11-06T05:28:33.842Z,7.20
2018-11-06T05:31:02.175Z,7.20
2018-11-06T05:33:30.514Z,7.20
2018-11-06T05:35:58.846Z,7.20
2018-11-06T05:38:27.194Z,7.20
2018-11-06T05:41:01.613Z,7.20
2018-11-06T05:43:29.974Z,7.20
2018-11-06T05:45:58.310Z,7.20
2018-11-06T05:48:26.659Z,7.20
2018-11-06T05:50:54.971Z,7.20
2018-11-06T05:53:23.451Z,7.20
2018-11-06T05:55:51.696Z,7.20
2018-11-06T05:58:20.140Z,7.20
2018-11-06T06:00:48.744Z,7.20
2018-11-06T06:03:17.121Z,7.30
2018-11-06T06:05:45.458Z,7.30
2018-11-06T06:08:13.807Z,7.30
2018-11-06T06:10:42.134Z,7.30
2018-11-06T06:13:10.479Z,7.30
2018-11-06T06:15:38.805Z,7.30
2018-11-06T06:18:07.147Z,7.30
2018-11-06T06:20:35.474Z,7.30
2018-11-06T06:23:03.816Z,7.30
2018-11-06T06:25:32.142Z,7.30
2018-11-06T06:28:00.527Z,7.30
2018-11-06T06:30:28.859Z,7.30
2018-11-06T06:32:57.202Z,7.30
2018-11-06T06:35:25.518Z,7.30
2018-11-06T06:37:53.854Z,7.30
2018-11-06T06:40:22.182Z,7.30
2018-11-06T06:42:50.522Z,7.30
2018-11-06T06:45:19.663Z,7.30
2018-11-06T06:47:48.015Z,7.20
2018-11-06T06:50:18.362Z,7.20
2018-11-06T06:52:47.176Z,7.20
2018-11-06T06:55:16.141Z,7.20
2018-11-06T06:57:45.677Z,7.20
2018-11-06T07:00:16.918Z,7.20
2018-11-06T07:02:45.282Z,7.20
2018-11-06T07:05:15.007Z,7.20
2018-11-06T07:07:44.008Z,7.10
2018-11-06T07:10:14.297Z,7.10
2018-11-06T07:12:43.786Z,7.20
2018-11-06T07:15:13.105Z,7.20
2018-11-06T07:17:41.714Z,7.20
2018-11-06T07:20:12.444Z,7.20
2018-11-06T07:22:40.845Z,7.20
2018-11-06T07:25:10.518Z,7.20
2018-11-06T07:27:39.740Z,7.20
2018-11-06T07:30:11.167Z,7.20
2018-11-06T07:32:40.090Z,7.20
2018-11-06T07:35:09.128Z,7.20
2018-11-06T07:37:38.044Z,7.20
2018-11-06T07:40:07.149Z,7.30
2018-11-06T07:42:35.479Z,7.30
2018-11-06T07:45:03.890Z,7.40
2018-11-06T07:47:32.210Z,7.40
2018-11-06T07:50:00.593Z,7.40
2018-11-06T07:52:28.906Z,7.50
2018-11-06T07:54:57.549Z,7.50
2018-11-06T07:57:25.891Z,7.60
2018-11-06T07:59:54.275Z,7.60
2018-11-06T08:02:22.602Z,7.70
2018-11-06T08:04:51.258Z,7.80
2018-11-06T08:07:19.590Z,7.80
2018-11-06T08:09:47.947Z,7.90
2018-11-06T08:12:16.287Z,7.90
2018-11-06T08:14:44.722Z,8.00
2018-11-06T08:17:12.969Z,8.10
2018-11-06T08:19:41.319Z,8.10
2018-11-06T08:22:09.638Z,8.20
2018-11-06T08:24:37.974Z,8.30
2018-11-06T08:27:06.291Z,8.30
2018-11-06T08:29:34.641Z,8.40
2018-11-06T08:32:03.302Z,8.40
2018-11-06T08:34:31.382Z,8.50
2018-11-06T08:36:59.716Z,8.60
2018-11-06T08:39:28.071Z,8.70
2018-11-06T08:41:56.389Z,8.70
2018-11-06T08:44:24.750Z,8.90
2018-11-06T08:46:53.082Z,9.00
2018-11-06T08:49:21.418Z,9.10
2018-11-06T08:51:49.743Z,9.20
2018-11-06T08:54:18.162Z,9.30
2018-11-06T08:56:46.490Z,9.40
2018-11-06T08:59:14.833Z,9.50
2018-11-06T09:01:44.008Z,9.60
2018-11-06T09:04:12.358Z,9.80
2018-11-06T09:06:40.727Z,9.90
2018-11-06T09:09:09.932Z,10.00
2018-11-06T09:11:38.491Z,10.10
2018-11-06T09:14:06.886Z,10.20
2018-11-06T09:16:35.209Z,10.30
2018-11-06T09:19:03.567Z,10.40
2018-11-06T09:21:31.936Z,10.50
2018-11-06T09:24:00.306Z,10.60
2018-11-06T09:26:28.630Z,10.70
2018-11-06T09:28:57.165Z,10.80
2018-11-06T09:31:26.946Z,10.90
2018-11-06T09:33:55.349Z,11.00
2018-11-06T09:36:23.683Z,11.10
2018-11-06T09:38:52.027Z,11.20
2018-11-06T09:41:20.409Z,11.30
2018-11-06T09:43:48.778Z,11.40
2018-11-06T09:46:17.115Z,11.50
2018-11-06T09:48:45.467Z,11.60
2018-11-06T09:51:13.830Z,11.70
2018-11-06T09:53:42.157Z,11.80
2018-11-06T09:56:10.513Z,11.90
2018-11-06T09:58:38.842Z,12.00
2018-11-06T10:01:07.210Z,12.10
2018-11-06T10:03:35.537Z,12.20
2018-11-06T10:06:03.956Z,12.30
2018-11-06T10:08:32.235Z,12.30
2018-11-06T10:11:00.577Z,12.40
2018-11-06T10:13:29.619Z,12.50
2018-11-06T10:15:57.963Z,12.60
2018-11-06T10:18:26.307Z,12.70
2018-11-06T10:20:54.652Z,12.70
2018-11-06T10:23:23.032Z,12.80
2018-11-06T10:25:51.389Z,12.80
2018-11-06T10:28:19.742Z,12.90
2018-11-06T10:30:48.255Z,12.90
2018-11-06T10:33:16.551Z,13.00
2018-11-06T10:35:44.942Z,13.00
2018-11-06T10:38:13.343Z,13.00
2018-11-06T10:40:41.654Z,13.10
2018-11-06T10:43:09.988Z,13.10
2018-11-06T10:45:38.363Z,13.20
2018-11-06T10:48:06.687Z,13.20
2018-11-06T10:50:35.035Z,13.20
2018-11-06T10:53:03.372Z,13.30
2018-11-06T10:55:31.791Z,13.30
2018-11-06T10:58:00.189Z,13.40
2018-11-06T11:00:33.983Z,13.50
2018-11-06T11:03:07.737Z,13.50
2018-11-06T11:05:36.082Z,13.60
2018-11-06T11:08:04.679Z,13.60
2018-11-06T11:10:33.033Z,13.70
2018-11-06T11:13:01.376Z,13.70
2018-11-06T11:15:29.745Z,13.70
2018-11-06T11:17:58.074Z,13.80
2018-11-06T11:20:26.480Z,13.80
2018-11-06T11:22:54.814Z,13.90
2018-11-06T11:25:23.166Z,14.00
2018-11-06T11:27:51.534Z,14.00
2018-11-06T11:30:19.885Z,14.10
2018-11-06T11:32:48.798Z,14.20
2018-11-06T11:35:17.389Z,14.20
2018-11-06T11:37:45.790Z,14.30
2018-11-06T11:40:15.073Z,14.40
2018-11-06T11:42:43.730Z,14.40
2018-11-06T11:45:13.158Z,14.40
2018-11-06T11:47:41.727Z,14.50
2018-11-06T11:50:11.552Z,14.50
2018-11-06T11:52:39.921Z,14.60
2018-11-06T11:55:08.649Z,14.70
2018-11-06T11:57:37.051Z,14.70
2018-11-06T12:00:06.965Z,14.80
2018-11-06T12:02:35.302Z,14.80
2018-11-06T12:05:03.667Z,14.90
2018-11-06T12:07:32.002Z,14.90
2018-11-06T12:10:00.353Z,15.00
2018-11-06T12:12:28.691Z,15.10
2018-11-06T12:14:57.034Z,15.20
2018-11-06T12:17:25.433Z,15.30
2018-11-06T12:19:53.782Z,15.30
2018-11-06T12:22:22.106Z,15.40
2018-11-06T12:24:50.592Z,15.50
2018-11-06T12:27:18.810Z,15.60
2018-11-06T12:29:47.150Z,15.70
2018-11-06T12:32:15.499Z,15.80
2018-11-06T12:34:43.830Z,15.90
2018-11-06T12:37:12.191Z,16.00
2018-11-06T12:39:40.554Z,16.10
2018-11-06T12:42:08.967Z,16.20
2018-11-06T12:44:37.484Z,16.30
2018-11-06T12:47:05.915Z,16.30
2018-11-06T12:49:34.269Z,16.40
2018-11-06T12:52:02.610Z,16.50
2018-11-06T12:54:30.946Z,16.50
2018-11-06T12:56:59.294Z,16.60
2018-11-06T12:59:27.642Z,16.70
2018-11-06T13:01:55.990Z,16.80
2018-11-06T13:04:24.322Z,16.80
2018-11-06T13:06:52.658Z,16.90
2018-11-06T13:09:20.985Z,16.90
2018-11-06T13:11:49.338Z,17.00
2018-11-06T13:14:17.694Z,17.00
2018-11-06T13:16:46.042Z,17.00
2018-11-06T13:19:14.388Z,17.10
2018-11-06T13:21:42.734Z,17.00
2018-11-06T13:24:11.054Z,17.00
2018-11-06T13:26:39.567Z,17.00
2018-11-06T13:29:07.817Z,16.90
2018-11-06T13:31:36.211Z,16.90
2018-11-06T13:34:04.885Z,16.90
2018-11-06T13:36:33.235Z,16.80
2018-11-06T13:39:01.555Z,16.80
2018-11-06T13:41:29.898Z,16.70
2018-11-06T13:43:58.542Z,16.70
2018-11-06T13:46:26.610Z,16.60
2018-11-06T13:48:54.940Z,16.60
2018-11-06T13:51:23.286Z,16.60
2018-11-06T13:53:51.609Z,16.50
2018-11-06T13:56:19.962Z,16.50
2018-11-06T13:58:48.285Z,16.50
2018-11-06T14:01:16.626Z,16.50
2018-11-06T14:03:44.950Z,16.50
2018-11-06T14:06:13.331Z,16.50
2018-11-06T14:08:41.657Z,16.50
2018-11-06T14:11:10.006Z,16.50
2018-11-06T14:13:38.330Z,16.40
2018-11-06T14:16:06.683Z,16.40
2018-11-06T14:18:35.305Z,16.40
2018-11-06T14:21:03.684Z,16.30
2018-11-06T14:23:32.022Z,16.30
2018-11-06T14:26:00.402Z,16.30
2018-11-06T14:28:28.722Z,16.20
2018-11-06T14:30:57.070Z,16.20
2018-11-06T14:33:25.398Z,16.20
2018-11-06T14:35:53.765Z,16.10
2018-11-06T14:38:22.094Z,16.10
2018-11-06T14:40:50.422Z,16.00
2018-11-06T14:43:18.775Z,16.00
2018-11-06T14:45:47.162Z,16.00
2018-11-06T14:48:15.544Z,15.90
2018-11-06T14:50:43.855Z,15.90
2018-11-06T14:53:12.203Z,15.80
2018-11-06T14:55:40.537Z,15.80
2018-11-06T14:58:08.916Z,15.80
2018-11-06T15:00:37.225Z,15.70
2018-11-06T15:03:06.017Z,15.60
2018-11-06T15:05:34.358Z,15.60
2018-11-06T15:08:02.712Z,15.50
2018-11-06T15:10:31.113Z,15.40
2018-11-06T15:12:59.456Z,15.40
2018-11-06T15:15:27.799Z,15.30
2018-11-06T15:17:56.160Z,15.20
2018-11-06T15:20:24.498Z,15.10
2018-11-06T15:22:52.915Z,15.00
2018-11-06T15:25:21.270Z,14.90
2018-11-06T15:27:49.614Z,14.80
2018-11-06T15:30:18.779Z,14.80
2018-11-06T15:32:47.133Z,14.70
2018-11-06T15:35:16.975Z,14.60
2018-11-06T15:37:45.313Z,14.50
2018-11-06T15:40:15.484Z,14.40
2018-11-06T15:42:43.945Z,14.30
2018-11-06T15:45:13.563Z,14.20
2018-11-06T15:47:42.673Z,14.20
2018-11-06T15:50:12.766Z,14.10
2018-11-06T15:52:41.531Z,14.00
2018-11-06T15:55:09.858Z,14.00
2018-11-06T15:57:38.547Z,13.90
2018-11-06T16:00:11.349Z,13.80
2018-11-06T16:02:39.730Z,13.70
2018-11-06T16:05:08.152Z,13.60
2018-11-06T16:07:36.867Z,13.50
2018-11-06T16:10:07.534Z,13.50
2018-11-06T16:12:35.951Z,13.40
2018-11-06T16:15:04.947Z,13.40
2018-11-06T16:17:33.415Z,13.30
2018-11-06T16:20:01.733Z,13.20
2018-11-06T16:22:30.424Z,13.10
2018-11-06T16:24:58.769Z,13.10
2018-11-06T16:27:27.106Z,13.00
2018-11-06T16:29:55.420Z,12.90
2018-11-06T16:32:23.766Z,12.80
2018-11-06T16:34:52.090Z,12.70
2018-11-06T16:37:20.903Z,12.60
2018-11-06T16:39:49.230Z,12.60
2018-11-06T16:42:17.667Z,12.50
2018-11-06T16:44:46.029Z,12.40
2018-11-06T16:47:14.396Z,12.30
2018-11-06T16:49:42.740Z,12.30
2018-11-06T16:52:11.182Z,12.20
2018-11-06T16:54:39.494Z,12.20
2018-11-06T16:57:08.007Z,12.10
2018-11-06T16:59:36.433Z,12.00
2018-11-06T17:02:05.118Z,12.00
2018-11-06T17:04:33.534Z,11.90
2018-11-06T17:07:02.687Z,11.90
2018-11-06T17:09:31.747Z,11.90
2018-11-06T17:12:00.085Z,11.80
2018-11-06T17:14:28.468Z,11.70
2018-11-06T17:16:56.804Z,11.70
2018-11-06T17:19:25.250Z,11.70
2018-11-06T17:21:53.596Z,11.60
2018-11-06T17:24:22.010Z,11.60
2018-11-06T17:26:50.357Z,11.50
2018-11-06T17:29:18.761Z,11.40
2018-11-06T17:31:47.122Z,11.40
2018-11-06T17:34:15.537Z,11.30
2018-11-06T17:36:43.863Z,11.30
2018-11-06T17:39:13.443Z,11.30
2018-11-06T17:41:41.783Z,11.20
2018-11-06T17:44:10.144Z,11.20
2018-11-06T17:46:38.471Z,11.10
2018-11-06T17:49:06.910Z,11.10
2018-11-06T17:51:35.237Z,11.00
2018-11-06T17:54:03.673Z,11.00
2018-11-06T17:56:32.029Z,10.90
2018-11-06T17:59:00.379Z,10.90
2018-11-06T18:01:28.705Z,10.80
2018-11-06T18:03:57.095Z,10.80
2018-11-06T18:06:26.035Z,10.80
2018-11-06T18:08:54.438Z,10.70
2018-11-06T18:11:22.829Z,10.60
2018-11-06T18:13:51.228Z,10.60
2018-11-06T18:16:19.559Z,10.60
2018-11-06T18:18:47.902Z,10.50
2018-11-06T18:21:16.219Z,10.50
2018-11-06T18:23:44.627Z,10.40
2018-11-06T18:26:12.955Z,10.40
2018-11-06T18:28:41.302Z,10.40
2018-11-06T18:31:09.658Z,10.30
2018-11-06T18:33:38.022Z,10.30
2018-11-06T18:36:06.466Z,10.30
2018-11-06T18:38:35.066Z,10.20
2018-11-06T18:41:03.418Z,10.20
2018-11-06T18:43:31.789Z,10.20
2018-11-06T18:46:00.121Z,10.10
2018-11-06T18:48:28.521Z,10.10
2018-11-06T18:50:56.891Z,10.10
2018-11-06T18:53:25.296Z,10.10
2018-11-06T18:55:53.630Z,10.00
2018-11-06T18:58:22.008Z,10.00
2018-11-06T19:00:50.512Z,10.00
2018-11-06T19:03:19.010Z,10.00
2018-11-06T19:05:47.339Z,9.90
2018-11-06T19:08:15.754Z,9.90
2018-11-06T19:10:44.114Z,9.90
2018-11-06T19:13:12.454Z,9.80
2018-11-06T19:15:40.873Z,9.80
2018-11-06T19:18:09.227Z,9.80
2018-11-06T19:20:37.630Z,9.80
2018-11-06T19:23:05.954Z,9.70
2018-11-06T19:25:34.290Z,9.70
2018-11-06T19:28:02.722Z,9.70
2018-11-06T19:30:31.152Z,9.70
2018-11-06T19:32:59.530Z,9.60
2018-11-06T19:35:27.885Z,9.60
2018-11-06T19:37:56.219Z,9.60
2018-11-06T19:40:24.601Z,9.50
2018-11-06T19:42:52.929Z,9.50
2018-11-06T19:45:21.300Z,9.50
2018-11-06T19:47:49.625Z,9.50
2018-11-06T19:50:19.171Z,9.50
2018-11-06T19:52:47.605Z,9.50
2018-11-06T19:55:16.941Z,9.40
2018-11-06T19:57:45.315Z,9.40
2018-11-06T20:00:45.782Z,9.40
2018-11-06T20:03:14.079Z,9.40
2018-11-06T20:05:42.595Z,9.30
2018-11-06T20:08:10.826Z,9.30
2018-11-06T20:10:39.223Z,9.30
2018-11-06T20:13:07.542Z,9.30
2018-11-06T20:15:35.894Z,9.20
2018-11-06T20:18:04.365Z,9.20
2018-11-06T20:20:32.682Z,9.20
2018-11-06T20:23:01.001Z,9.10
2018-11-06T20:25:29.344Z,9.10
2018-11-06T20:27:57.679Z,9.10
2018-11-06T20:30:26.917Z,9.10
2018-11-06T20:32:55.245Z,9.00
2018-11-06T20:35:23.731Z,9.00
2018-11-06T20:37:52.391Z,9.00
2018-11-06T20:40:22.179Z,9.00
2018-11-06T20:42:50.669Z,8.90
2018-11-06T20:45:19.857Z,8.90
2018-11-06T20:47:48.262Z,8.90
2018-11-06T20:50:18.826Z,8.90
2018-11-06T20:52:47.501Z,8.90
2018-11-06T20:55:16.573Z,8.90
2018-11-06T20:57:44.919Z,8.80
2018-11-06T21:00:22.437Z,8.80
2018-11-06T21:02:51.601Z,8.80
2018-11-06T21:05:19.982Z,8.70
2018-11-06T21:07:48.653Z,8.70
2018-11-06T21:10:18.422Z,8.70
2018-11-06T21:12:47.055Z,8.70
2018-11-06T21:15:15.417Z,8.60
2018-11-06T21:17:43.901Z,8.60
2018-11-06T21:20:13.295Z,8.60
2018-11-06T21:22:41.602Z,8.60
2018-11-06T21:25:10.319Z,8.60
2018-11-06T21:27:39.583Z,8.50
2018-11-06T21:30:10.851Z,8.50
2018-11-06T21:32:40.092Z,8.40
2018-11-06T21:35:08.439Z,8.40
2018-11-06T21:37:37.087Z,8.40
2018-11-06T21:40:07.535Z,8.40
2018-11-06T21:42:35.912Z,8.40
2018-11-06T21:45:04.311Z,8.40
2018-11-06T21:47:32.631Z,8.30
2018-11-06T21:50:00.985Z,8.30
2018-11-06T21:52:29.306Z,8.30
2018-11-06T21:54:57.687Z,8.30
2018-11-06T21:57:26.005Z,8.30
2018-11-06T21:59:54.361Z,8.30
2018-11-06T22:02:22.683Z,8.20
2018-11-06T22:04:51.024Z,8.20
2018-11-06T22:07:19.342Z,8.20
2018-11-06T22:09:47.678Z,8.20
2018-11-06T22:12:16.072Z,8.20
2018-11-06T22:14:44.356Z,8.20
2018-11-06T22:17:12.675Z,8.20
2018-11-06T22:19:41.010Z,8.20
2018-11-06T22:22:09.415Z,8.20
2018-11-06T22:24:37.755Z,8.20
2018-11-06T22:27:06.368Z,8.20
2018-11-06T22:29:34.689Z,8.20
2018-11-06T22:32:03.075Z,8.20
2018-11-06T22:34:31.363Z,8.30
2018-11-06T22:36:59.737Z,8.20
2018-11-06T22:39:28.071Z,8.20
2018-11-06T22:41:56.414Z,8.30
2018-11-06T22:44:24.754Z,8.30
2018-11-06T22:46:53.124Z,8.30
2018-11-06T22:49:21.434Z,8.30
2018-11-06T22:51:49.779Z,8.40
2018-11-06T22:54:18.098Z,8.40
2018-11-06T22:56:46.440Z,8.30
2018-11-06T22:59:14.768Z,8.40
2018-11-06T23:01:43.123Z,8.40
2018-11-06T23:04:11.453Z,8.40
2018-11-06T23:06:39.849Z,8.40
2018-11-06T23:09:09.357Z,8.40
2018-11-06T23:11:37.789Z,8.50
2018-11-06T23:14:06.324Z,8.50
2018-11-06T23:16:34.671Z,8.50
2018-11-06T23:19:03.031Z,8.60
2018-11-06T23:21:31.372Z,8.50
2018-11-06T23:23:59.697Z,8.50
2018-11-06T23:26:28.064Z,8.60
2018-11-06T23:28:56.417Z,8.60
2018-11-06T23:31:24.823Z,8.60
2018-11-06T23:33:53.109Z,8.60
2018-11-06T23:36:21.469Z,8.60
2018-11-06T23:38:49.802Z,8.50
2018-11-06T23:41:18.138Z,8.50
2018-11-06T23:43:46.486Z,8.50
2018-11-06T23:46:14.829Z,8.50
2018-11-06T23:48:43.153Z,8.50
2018-11-06T23:51:11.515Z,8.50
2018-11-06T23:53:39.854Z,8.50
2018-11-06T23:56:08.193Z,8.50
2018-11-06T23:58:36.550Z,8.50
